WMSA/SZB METAR and TAF weather

Enter ICAO airport designator
Station Type Date Time Source
WMSA METAR 2021/05/15 23:00 UTC NOAA

WMSA 152300Z 00000KT 8000 FEW017CB 27/25 Q1008


Station Type Date Time Source
WMSA Decoded METAR 2021/05/15 23:00 UTC NOAA

Subang/Sultan Abdul Aziz Shah Airport, Malaysia (WMSA) 03-07N 101-32E
May 15, 2021 - 07:00 PM EDT / 2021.05.15 2300 UTC
Wind: Calm:0
Visibility: 4 mile(s):0
Sky conditions: mostly clear
Weather: Cumulonimbus clouds observed
Temperature: 80 F (27 C)
Dew Point: 77 F (25 C)
Relative Humidity: 88%
Pressure (altimeter): 29.77 in. Hg (1008 hPa)
ob: WMSA 152300Z 00000KT 8000 FEW017CB 27/25 Q1008
cycle: 23

Station Type Date Time Source
WMSA TAF 2021/05/15 18:12 UTC NOAA

TAF WMSA 151700Z 1518/1618 23005KT 9999 FEW017CB
TEMPO 1520/1600 4000 TSRA FEW010 FEW017CB

Example: see airport list